• Join FlightAware (Why Join?)
  • Login
  • US Flag 
03:24AM EDT


 

Airport Tracker/Info


-or-


 

Live Flight TrackerFlight Track Log ✈ ACA831 ✈ 27-Apr-2013 ✈ LSGG / GVA - CYUL

Flight Track Log - Related Links

Times and Time Zones

All times are in EDT time to prevent confusion due to time zone crossing. See the ACA831 flight status page for this flight to view local times or setup timezone preferences in your user account.

Time Position Orientation Groundspeed Altitude Reporting Facility
EDT Latitude Longitude Course Direction KTS MPH feet Rate Location/Type
06:30AM 46.2200 6.0910 223° Southwest 188 216 2,400  Level FlightAware
06:31AM 46.2010 6.0630 226° Southwest 190 219 4,000 2,820 Climbing FlightAware
06:31AM 46.1950 6.0540 226° Southwest 187 215 4,300 2,220 Climbing FlightAware
06:31AM 46.1760 6.0260 226° Southwest 188 216 5,500 2,400 Climbing FlightAware
06:32AM 46.1580 5.9990 226° Southwest 189 217 6,700 2,100 Climbing FlightAware
06:32AM 46.1500 5.9870 226° Southwest 191 220 7,100 1,680 Climbing FlightAware
06:32AM 46.1370 5.9670 227° Southwest 204 235 7,700 1,500 Climbing FlightAware
06:33AM 46.1380 5.9360 273° West 239 275 8,100 1,320 Climbing FlightAware
06:33AM 46.1500 5.9150 310° West 255 293 8,500 1,620 Climbing FlightAware
06:34AM 46.2010 5.9110 357° North 293 337 9,600 1,620 Climbing FlightAware
06:34AM 46.2610 5.9090 359° North 346 398 10,700 1,440 Climbing FlightAware
06:35AM 46.3260 5.8600 333° Northwest 386 444 11,700 1,860 Climbing FlightAware
06:36AM 46.3930 5.8070 331° Northwest 405 466 13,400 2,640 Climbing FlightAware
06:36AM 46.4520 5.7600 331° Northwest 423 487 15,000 2,580 Climbing FlightAware
06:37AM 46.5020 5.7200 331° Northwest 425 489 16,200 2,700 Climbing FlightAware
06:38AM 46.5800 5.6570 331° Northwest 439 505 18,200 2,640 Climbing FlightAware
06:38AM 46.6650 5.5890 331° Northwest 450 518 20,000 2,220 Climbing FlightAware
06:39AM 46.7390 5.5290 331° Northwest 461 531 21,400 1,920 Climbing FlightAware
06:40AM 46.8100 5.4560 325° Northwest 466 536 22,600 1,800 Climbing FlightAware
06:40AM 46.8790 5.3630 317° Northwest 473 544 24,000 1,800 Climbing FlightAware
06:41AM 46.9430 5.2730 316° Northwest 480 552 25,200 1,860 Climbing FlightAware
06:42AM 47.0150 5.1700 316° Northwest 484 557 26,700 1,920 Climbing FlightAware
06:42AM 47.0810 5.0780 317° Northwest 483 556 28,000 2,160 Climbing FlightAware
06:43AM 47.1530 4.9750 316° Northwest 472 543 29,800 2,040 Climbing FlightAware
06:44AM 47.2130 4.8890 316° Northwest 470 541 30,900 1,620 Climbing FlightAware
06:45AM 47.2750 4.8000 316° Northwest 463 533 32,000 720 Climbing FlightAware
06:45AM 47.3450 4.7030 317° Northwest 464 534 32,000  Level FlightAware
06:46AM 47.4160 4.6320 326° Northwest 468 539 32,000  Level FlightAware
06:47AM 47.4960 4.5510 326° Northwest 472 543 32,000  Level FlightAware
06:47AM 47.5690 4.4760 325° Northwest 473 544 32,000  Level FlightAware
06:48AM 47.6430 4.4000 325° Northwest 475 547 32,000  Level FlightAware
06:49AM 47.7160 4.3120 321° Northwest 464 534 32,000  Level FlightAware
06:49AM 47.7710 4.2200 312° West 454 522 32,000  Level FlightAware
06:50AM 47.8320 4.1060 309° West 457 526 32,000  Level FlightAware
06:51AM 47.8810 4.0140 308° West 458 527 32,000  Level FlightAware
06:52AM 47.9350 3.9110 308° West 460 529 32,000  Level FlightAware
06:52AM 47.9920 3.8020 308° West 461 531 32,000  Level FlightAware
06:53AM 48.0450 3.6980 307° West 464 534 32,000  Level FlightAware
06:54AM 48.1050 3.5830 308° West 465 535 32,000  Level FlightAware
06:54AM 48.1610 3.4750 308° West 466 536 32,000  Level FlightAware
06:55AM 48.2130 3.3720 307° West 466 536 32,000  Level FlightAware
06:56AM 48.2710 3.2590 308° West 467 537 32,000  Level FlightAware
06:56AM 48.3101 3.1829 308° West 469 540 32,000  Level FlightAware ADS-B
06:57AM 48.3500 3.1043 307° West 469 540 32,000  Level FlightAware ADS-B
06:57AM 48.3889 3.0262 307° West 467 537 32,000  Level FlightAware ADS-B
06:58AM 48.4119 2.9656 300° West 452 520 32,000  Level FlightAware ADS-B
06:58AM 48.4390 2.8475 289° West 450 518 32,000  Level FlightAware ADS-B
06:58AM 48.4425 2.8307 287° West 438 504 32,000  Level FlightAware ADS-B
06:59AM 48.4603 2.7402 287° West 439 505 32,000  Level FlightAware ADS-B
07:00AM 48.4931 2.5723 286° West 439 505 32,000  Level FlightAware ADS-B
07:00AM 48.5103 2.4831 286° West 441 507 32,000  Level FlightAware ADS-B
07:01AM 48.5462 2.2958 286° West 441 507 32,000  Level FlightAware ADS-B
07:02AM 48.5630 2.2060 286° West 442 509 32,000  Level FlightAware ADS-B
07:03AM 48.5812 2.1076 286° West 442 509 32,000 -1,620 Level FlightAware ADS-B
07:03AM 48.5986 2.0442 286° West 460 529 30,500  Descending FlightAware UK
07:03AM 48.5994 2.0098 286° West 443 510 32,000  Climbing FlightAware ADS-B
07:03AM 48.6158 1.9557 286° West 458 527 30,500  Descending FlightAware UK
07:04AM 48.6166 1.9171 286° West 442 509 32,000  Climbing FlightAware ADS-B
07:04AM 48.6348 1.8484 286° West 456 525 30,500  Descending FlightAware UK
07:04AM 48.6363 1.8091 286° West 442 509 32,000  Climbing FlightAware ADS-B
07:04AM 48.6513 1.7596 286° West 456 525 30,500  Descending FlightAware UK
07:05AM 48.6591 1.6834 286° West 442 509 32,000  Climbing FlightAware ADS-B
07:05AM 48.6728 1.6346 286° West 454 522 30,500  Descending FlightAware UK
07:05AM 48.6754 1.5940 286° West 444 511 32,000  Climbing FlightAware ADS-B
07:06AM 48.6892 1.5451 286° West 452 520 30,500 -2,580 Descending FlightAware UK
07:06AM 48.6991 1.4913 286° West 454 522 30,500 4,080 Level FlightAware UK
07:06AM 48.6970 1.4780 286° West 446 513 32,000 2,340 Climbing FlightAware
07:07AM 48.7159 1.3733 285° West 446 513 32,000 -1,620 Level FlightAware ADS-B
07:07AM 48.7324 1.3114 285° West 456 525 30,500 -2,280 Descending FlightAware UK
07:07AM 48.7422 1.2570 285° West 456 525 30,500 3,180 Level FlightAware UK
07:07AM 48.7434 1.2225 285° West 448 516 32,000  Climbing FlightAware ADS-B
07:08AM 48.7617 1.1481 285° West 454 522 30,500  Descending FlightAware UK
07:08AM 48.7640 1.1070 285° West 448 516 32,000  Climbing FlightAware
07:08AM 48.7777 1.0579 285° West 456 525 30,500 -2,340 Descending FlightAware UK
07:09AM 48.7907 0.9851 285° West 456 525 30,500 3,000 Level FlightAware UK
07:09AM 48.7890 0.9670 285° West 450 518 32,000  Climbing FlightAware
07:09AM 48.8034 0.9121 285° West 456 525 30,500  Descending FlightAware UK
07:10AM 48.8100 0.8450 285° West 451 519 32,000 1,320 Climbing FlightAware
07:10AM 48.8220 0.7100 278° West 439 505 32,000 -1,500 Level FlightAware
07:11AM 48.8248 0.6552 278° West 460 529 30,500  Descending FlightAware UK
07:11AM 48.8200 0.5950 278° West 440 506 32,000  Climbing FlightAware
07:11AM 48.8214 0.5072 278° West 464 534 30,500  Descending FlightAware UK
07:12AM 48.8160 0.4640 278° West 439 505 32,000  Climbing FlightAware
07:12AM 48.8169 0.3788 278° West 462 532 30,500  Descending FlightAware UK
07:12AM 48.8120 0.3270 278° West 440 506 32,000  Climbing FlightAware
07:13AM 48.8130 0.2692 278° West 464 534 30,500 -2,520 Descending FlightAware UK
07:13AM 48.8109 0.2141 267° West 462 532 30,500 4,080 Level FlightAware UK
07:13AM 48.8070 0.2000 267° West 440 506 32,000  Climbing FlightAware
07:13AM 48.8074 0.1221 267° West 462 532 30,500  Descending FlightAware UK
07:14AM 48.8020 0.0710 267° West 440 506 32,000  Climbing FlightAware
07:14AM 48.8018 -0.0249 267° West 460 529 30,500  Descending FlightAware UK
07:14AM 48.7970 -0.0570 267° West 440 506 32,000 1,560 Climbing FlightAware
07:15AM 48.7910 -0.2010 266° West 441 507 32,000 -1,500 Level FlightAware
07:15AM 48.7923 -0.2468 266° West 462 532 30,500 -2,760 Descending FlightAware UK
07:16AM 48.7897 -0.3025 266° West 464 534 30,500 3,600 Level FlightAware UK
07:16AM 48.7870 -0.3140 266° West 442 509 32,000  Climbing FlightAware
07:16AM 48.7848 -0.4139 266° West 462 532 30,500  Descending FlightAware UK
07:17AM 48.7800 -0.4460 266° West 443 510 32,000 1,560 Climbing FlightAware
07:17AM 48.7730 -0.5830 266° West 444 511 32,000  Level FlightAware
07:18AM 48.7660 -0.7070 265° West 444 511 32,000  Level FlightAware
07:19AM 48.7660 -0.8300 270° West 450 518 32,000 -1,500 Level FlightAware
07:19AM 48.7807 -0.8956 270° West 462 532 30,500  Descending FlightAware UK
07:19AM 48.7930 -0.9620 270° West 456 525 32,000  Climbing FlightAware
07:20AM 48.8118 -1.0215 270° West 466 536 30,500  Descending FlightAware UK
07:20AM 48.8230 -1.0840 270° West 456 525 32,000 1,320 Climbing FlightAware
07:21AM 48.8580 -1.2230 291° West 455 524 32,000  Level FlightAware
07:21AM 48.8880 -1.3400 291° West 454 522 32,000 -1,620 Level FlightAware
07:22AM 48.9058 -1.3959 291° West 462 532 30,500  Descending FlightAware UK
07:22AM 48.9180 -1.4610 291° West 455 524 32,000  Climbing FlightAware
07:23AM 48.9411 -1.5392 291° West 462 532 30,500  Descending FlightAware UK
07:23AM 48.9450 -1.5700 291° West 454 522 32,000 1,500 Climbing FlightAware
07:24AM 48.9800 -1.7140 290° West 454 522 32,000 -1,440 Level FlightAware
07:24AM 48.9987 -1.7717 290° West 458 527 30,500 -2,520 Descending FlightAware UK
07:24AM 49.0119 -1.8250 291° West 456 525 30,500 4,080 Level FlightAware UK
07:24AM 49.0100 -1.8350 291° West 455 524 32,000  Climbing FlightAware
07:25AM 49.0297 -1.8976 291° West 460 529 30,500  Descending FlightAware UK
07:25AM 49.0420 -1.9680 291° West 456 525 32,000  Climbing FlightAware
07:25AM 49.0603 -2.0237 291° West 462 532 30,500 -2,580 Descending FlightAware UK
07:26AM 49.0735 -2.0783 290° West 462 532 30,500 3,900 Level FlightAware UK
07:26AM 49.0650 -2.0650 290° West 457 526 32,000  Climbing FlightAware
07:26AM 49.0914 -2.1506 290° West 462 532 30,500 -2,460 Descending FlightAware UK
07:26AM 49.1046 -2.2042 291° West 462 532 30,500 4,260 Level FlightAware UK
07:26AM 49.0940 -2.1820 291° West 457 526 32,000  Climbing FlightAware
07:27AM 49.1178 -2.2585 291° West 464 534 30,500 -2,760 Descending FlightAware UK
07:27AM 49.1308 -2.3128 290° West 464 534 30,500 3,000 Level FlightAware UK
07:27AM 49.1280 -2.3230 290° West 458 527 32,000  Climbing FlightAware
07:28AM 49.1649 -2.4576 290° West 460 529 30,500  Descending FlightAware UK
07:28AM 49.1600 -2.4590 290° West 457 526 32,000  Climbing FlightAware
07:28AM 49.1824 -2.5306 290° West 464 534 30,500 -2,760 Descending FlightAware UK
07:28AM 49.1953 -2.5853 290° West 464 534 30,500 3,600 Level FlightAware UK
07:28AM 49.1870 -2.5700 290° West 458 527 32,000  Climbing FlightAware
07:29AM 49.2126 -2.6584 290° West 464 534 30,500 -2,580 Descending FlightAware UK
07:29AM 49.2256 -2.7136 290° West 462 532 30,500  Level FlightAware UK
07:29AM 49.2383 -2.7681 290° West 462 532 30,500 4,500 Level FlightAware UK
07:29AM 49.2280 -2.7480 290° West 459 528 32,000  Climbing FlightAware
07:30AM 49.2511 -2.8233 290° West 462 532 30,500  Descending FlightAware UK
07:30AM 49.2590 -2.8800 290° West 460 529 32,000  Climbing FlightAware
07:31AM 49.2938 -3.0067 290° West 462 532 30,500  Descending FlightAware UK
07:31AM 49.2850 -2.9920 290° West 461 531 32,000  Climbing FlightAware
07:31AM 49.3151 -3.0990 290° West 462 532 30,500 -2,100 Descending FlightAware UK
07:31AM 49.3279 -3.1537 290° West 460 529 30,500 4,500 Level FlightAware UK
07:31AM 49.3140 -3.1220 290° West 461 531 32,000  Climbing FlightAware
07:32AM 49.3407 -3.2098 290° West 460 529 30,500 -2,280 Descending FlightAware UK
07:32AM 49.3576 -3.2832 289° West 460 529 30,500 3,060 Level FlightAware UK
07:32AM 49.3480 -3.2700 289° West 463 533 32,000  Climbing FlightAware
07:33AM 49.3745 -3.3575 289° West 460 529 30,500  Descending FlightAware UK
07:33AM 49.3720 -3.3740 289° West 463 533 32,000  Climbing FlightAware
07:33AM 49.3997 -3.4693 289° West 466 536 30,500 -2,400 Descending FlightAware UK
07:33AM 49.4122 -3.5255 289° West 468 539 30,500 3,000 Level FlightAware UK
07:34AM 49.4060 -3.5230 289° West 464 534 32,000 1,860 Climbing FlightAware
07:34AM 49.4290 -3.6300 289° West 464 534 32,000 -2,520 Level FlightAware
07:34AM 49.4458 -3.6752 289° West 468 539 30,500 -4,740 Descending FlightAware UK
07:35AM 49.4582 -3.7308 289° West 470 541 30,500 2,040 Level FlightAware UK
07:35AM 49.4620 -3.7790 289° West 464 534 32,000  Climbing FlightAware
07:35AM 49.4872 -3.8621 289° West 462 532 30,500 -2,280 Descending FlightAware UK
07:36AM 49.5036 -3.9371 289° West 466 536 30,500 3,060 Level FlightAware UK
07:36AM 49.4950 -3.9260 289° West 464 534 32,000  Climbing FlightAware
07:36AM 49.5242 -4.0302 289° West 468 539 30,500  Descending FlightAware UK
07:36AM 49.5140 -4.0150 289° West 464 534 32,000  Climbing FlightAware
07:37AM 49.5531 -4.1610 289° West 470 541 30,500  Descending FlightAware UK
07:37AM 49.5460 -4.1600 289° West 463 533 32,000  Climbing FlightAware
07:37AM 49.5694 -4.2354 289° West 470 541 30,500 -2,700 Descending FlightAware UK
07:38AM 49.5817 -4.2912 289° West 468 539 30,500 2,640 Level FlightAware UK
07:38AM 49.5810 -4.3120 289° West 454 522 32,000  Climbing FlightAware
07:38AM 49.6171 -4.3921 289° West 464 534 30,500  Descending FlightAware UK
07:38AM 49.6240 -4.4270 289° West 445 512 32,000 1,380 Climbing FlightAware
07:39AM 49.6800 -4.5600 303° West 443 510 32,000 -1,440 Level FlightAware
07:40AM 49.7118 -4.6135 303° West 468 539 30,500 -2,520 Descending FlightAware UK
07:40AM 49.7320 -4.6609 304° West 468 539 30,500 4,080 Level FlightAware UK
07:40AM 49.7260 -4.6660 304° West 441 507 32,000  Climbing FlightAware
07:40AM 49.7588 -4.7241 304° West 464 534 30,500  Descending FlightAware UK
07:41AM 49.7700 -4.7710 304° West 437 503 32,000  Climbing FlightAware
07:41AM 49.7987 -4.8183 304° West 462 532 30,500 -2,700 Descending FlightAware UK
07:41AM 49.8184 -4.8654 303° West 462 532 30,500 3,060 Level FlightAware UK
07:41AM 49.8190 -4.8870 303° West 435 501 32,000  Climbing FlightAware
07:42AM 49.8511 -4.9437 303° West 456 525 30,500 -2,460 Descending FlightAware UK
07:42AM 49.8709 -4.9905 303° West 456 525 30,500 4,260 Level FlightAware UK
07:42AM 49.8620 -4.9900 303° West 435 501 32,000  Climbing FlightAware
07:42AM 49.8972 -5.0530 303° West 460 529 30,500  Descending FlightAware UK
07:43AM 49.9120 -5.1120 303° West 435 501 32,000  Climbing FlightAware
07:43AM 49.9622 -5.2099 303° West 458 527 30,500  Descending FlightAware UK
07:43AM 49.9550 -5.2150 303° West 434 499 32,000  Climbing FlightAware
07:44AM 49.9883 -5.2730 303° West 462 532 30,500 -2,400 Descending FlightAware UK
07:44AM 50.0078 -5.3203 303° West 464 534 30,500 4,500 Level FlightAware UK
07:44AM 49.9990 -5.3210 303° West 436 502 32,000  Climbing FlightAware
07:45AM 50.0403 -5.3994 303° West 462 532 30,500  Descending FlightAware UK
07:45AM 50.0480 -5.4420 303° West 435 501 32,000  Climbing FlightAware
07:45AM 50.0795 -5.4941 303° West 460 529 30,500 -2,460 Descending FlightAware UK
07:45AM 50.0989 -5.5416 303° West 460 529 30,500 4,260 Level FlightAware UK
07:45AM 50.0890 -5.5420 303° West 434 499 32,000  Climbing FlightAware
07:46AM 50.1183 -5.5890 303° West 460 529 30,500 -2,760 Descending FlightAware UK
07:46AM 50.1376 -5.6364 302° West 464 534 30,500 3,000 Level FlightAware UK
07:46AM 50.1380 -5.6630 302° West 435 501 32,000  Climbing FlightAware
07:47AM 50.1694 -5.7164 302° West 458 527 30,500 -2,520 Descending FlightAware UK
07:47AM 50.1876 -5.7653 300° West 458 527 30,500 4,080 Level FlightAware UK
07:47AM 50.1790 -5.7720 300° West 437 503 32,000  Climbing FlightAware
07:47AM 50.2175 -5.8478 300° West 460 529 30,500  Descending FlightAware UK
07:48AM 50.2200 -5.8810 300° West 436 502 32,000  Climbing FlightAware
07:48AM 50.2479 -5.9295 300° West 456 525 30,500 -2,700 Descending FlightAware UK
07:48AM 50.2662 -5.9785 300° West 454 522 30,500 3,060 Level FlightAware UK
07:48AM 50.2640 -6.0010 300° West 436 502 32,000  Climbing FlightAware
07:49AM 50.2968 -6.0601 300° West 462 532 30,500 -2,460 Descending FlightAware UK
07:49AM 50.3148 -6.1086 300° West 464 534 30,500 4,260 Level FlightAware UK
07:49AM 50.3050 -6.1110 300° West 437 503 32,000 660 Climbing FlightAware
07:49AM 50.3329 -6.1580 300° West 464 534 30,700 -1,500 Descending FlightAware UK
07:50AM 50.3468 -6.2127 292° West 456 525 31,200 4,560 Climbing FlightAware UK
07:50AM 50.3440 -6.2430 292° West 449 517 33,000 1,560 Climbing FlightAware
07:50AM 50.3691 -6.3032 292° West 458 527 32,000 -1,200 Descending FlightAware UK
07:50AM 50.3824 -6.3578 291° West 454 522 32,300 5,160 Climbing FlightAware UK
07:50AM 50.3730 -6.3670 291° West 451 519 33,900 480 Climbing FlightAware
07:51AM 50.3996 -6.4313 291° West 458 527 32,500 120 Descending FlightAware UK
07:51AM 50.4010 -6.4890 291° West 458 527 34,000  Climbing FlightAware
07:51AM 50.4248 -6.5435 291° West 460 529 32,500 -2,700 Descending FlightAware UK
07:52AM 50.4375 -6.6000 289° West 462 532 32,500 3,060 Level FlightAware UK
07:52AM 50.4340 -6.6320 289° West 458 527 34,000  Climbing FlightAware
07:52AM 50.4586 -6.6939 289° West 458 527 32,500 -2,460 Descending FlightAware UK
07:52AM 50.4710 -6.7499 289° West 458 527 32,500 4,260 Level FlightAware UK
07:52AM 50.4610 -6.7550 289° West 451 519 34,000  Climbing FlightAware
07:53AM 50.4835 -6.8054 289° West 456 525 32,500 -2,760 Descending FlightAware UK
07:53AM 50.4960 -6.8600 290° West 454 522 32,500 3,000 Level FlightAware UK
07:53AM 50.4910 -6.8900 290° West 444 511 34,000  Climbing FlightAware
07:54AM 50.5164 -6.9499 290° West 448 516 32,500 -2,520 Descending FlightAware UK
07:54AM 50.5287 -7.0040 290° West 446 513 32,500 4,080 Level FlightAware UK
07:54AM 50.5190 -7.0130 290° West 440 506 34,000  Climbing FlightAware
07:54AM 50.5447 -7.0755 290° West 446 513 32,500 -2,400 Descending FlightAware UK
07:55AM 50.5569 -7.1296 289° West 440 506 32,500 4,500 Level FlightAware UK
07:55AM 50.5460 -7.1320 289° West 439 505 34,000  Climbing FlightAware
07:55AM 50.5688 -7.1836 289° West 440 506 32,500 -2,700 Descending FlightAware UK
07:55AM 50.5809 -7.2377 289° West 440 506 32,500 3,060 Level FlightAware UK
07:55AM 50.5770 -7.2710 289° West 441 507 34,000  Climbing FlightAware
07:56AM 50.6010 -7.3281 289° West 444 511 32,500 -2,460 Descending FlightAware UK
07:56AM 50.6132 -7.3826 290° West 444 511 32,500 4,260 Level FlightAware UK
07:56AM 50.6040 -7.3930 290° West 445 512 34,000  Climbing FlightAware
07:56AM 50.6253 -7.4376 290° West 446 513 32,500 -2,760 Descending FlightAware UK
07:57AM 50.6375 -7.4929 289° West 448 516 32,500 3,600 Level FlightAware UK
07:57AM 50.6300 -7.5130 289° West 448 516 34,000  Climbing FlightAware
07:57AM 50.6536 -7.5672 289° West 450 518 32,500 -2,580 Descending FlightAware UK
07:57AM 50.6658 -7.6231 289° West 450 518 32,500 3,180 Level FlightAware UK
07:57AM 50.6600 -7.6500 289° West 452 520 34,000  Climbing FlightAware
07:58AM 50.6863 -7.7164 289° West 452 520 32,500 -2,400 Descending FlightAware UK
07:58AM 50.6986 -7.7725 289° West 452 520 32,500 3,600 Level FlightAware UK
07:58AM 50.6910 -7.7950 289° West 455 524 34,000  Climbing FlightAware
07:58AM 50.7149 -7.8476 289° West 454 522 32,500 -2,580 Descending FlightAware UK
07:59AM 50.7272 -7.9041 289° West 458 527 32,500 3,900 Level FlightAware UK
07:59AM 50.7180 -7.9210 289° West 458 527 34,000  Climbing FlightAware
07:59AM 50.7435 -7.9799 289° West 460 529 32,500 -2,460 Descending FlightAware UK
07:59AM 50.7556 -8.0369 289° West 462 532 32,500 4,260 Level FlightAware UK
07:59AM 50.7460 -8.0480 289° West 459 528 34,000  Climbing FlightAware
08:00AM 50.7677 -8.0940 289° West 462 532 32,500 -2,760 Descending FlightAware UK
08:00AM 50.7798 -8.1511 289° West 462 532 32,500 3,000 Level FlightAware UK
08:00AM 50.7760 -8.1890 289° West 460 529 34,000  Climbing FlightAware
08:01AM 50.7998 -8.2459 289° West 462 532 32,500 -2,520 Descending FlightAware UK
08:01AM 50.8120 -8.3030 289° West 462 532 32,500 4,080 Level FlightAware UK
08:01AM 50.8020 -8.3130 289° West 459 528 34,000  Climbing FlightAware
08:01AM 50.8281 -8.3792 289° West 460 529 32,500 -2,400 Descending FlightAware UK
08:02AM 50.8403 -8.4362 289° West 460 529 32,500 4,500 Level FlightAware UK
08:02AM 50.8290 -8.4400 289° West 457 526 34,000  Climbing FlightAware
08:02AM 50.8522 -8.4932 289° West 458 527 32,500 -2,700 Descending FlightAware UK
08:02AM 50.8640 -8.5501 288° West 458 527 32,500 3,060 Level FlightAware UK
08:02AM 50.8590 -8.5860 288° West 456 525 34,000  Climbing FlightAware
08:03AM 50.8837 -8.6448 288° West 458 527 32,500 -2,460 Descending FlightAware UK
08:03AM 50.8955 -8.7016 288° West 456 525 32,500  Level FlightAware UK
08:03AM 50.9073 -8.7585 288° West 456 525 32,500 2,700 Level FlightAware UK
08:03AM 50.9050 -8.8030 288° West 455 524 34,000  Climbing FlightAware
08:04AM 50.9268 -8.8531 288° West 458 527 32,500 -2,760 Descending FlightAware UK
08:04AM 50.9385 -8.9099 288° West 456 525 32,500 3,600 Level FlightAware UK
08:04AM 50.9290 -8.9240 288° West 454 522 34,000  Climbing FlightAware
08:04AM 50.9540 -8.9856 288° West 454 522 32,500  Descending FlightAware UK
08:05AM 50.9570 -9.0600 288° West 452 520 34,000 1,320 Climbing FlightAware
08:06AM 50.9850 -9.1970 288° West 452 520 34,000  Level FlightAware
08:06AM 51.0110 -9.3260 288° West 454 522 34,000  Level FlightAware
08:08AM 51.0740 -9.6420 288° West 454 522 34,000  Level FlightAware
08:10AM 51.1333 -9.9281 288° West  Level Estimated
08:10AM 51.1370 -9.9620 288° West 450 518 34,000  Level FlightAware
08:10AM 51.1630 -10.0960 287° West 450 518 34,000  Level FlightAware
08:11AM 51.1960 -10.2630 288° West 450 518 34,000  Level FlightAware
08:14AM 51.2801 -10.6829 288° West  Level Estimated
08:14AM 51.2880 -10.7480 288° West 451 519 34,000  Level FlightAware
08:15AM 51.3260 -10.9520 287° West 448 516 34,000  Level FlightAware
08:16AM 51.3450 -11.0600 286° West 448 516 34,000  Level FlightAware
08:16AM 51.3700 -11.1980 286° West 444 511 34,000  Level FlightAware
08:17AM 51.3960 -11.3380 287° West 440 506 34,000  Level FlightAware
08:18AM 51.4180 -11.4720 285° West 440 506 34,000  Level FlightAware
08:18AM 51.4360 -11.5790 285° West 440 506 34,000  Level FlightAware
08:19AM 51.4540 -11.6870 285° West 440 506 34,000  Level FlightAware
08:20AM 51.4720 -11.7940 285° West 440 506 34,000  Level FlightAware
08:20AM 51.4900 -11.9010 285° West 440 506 34,000  Level FlightAware
08:21AM 51.3830 -11.2600 105° East 34,000  Level FlightAware
08:21AM 51.5460 -12.1880 286° West 438 504 34,000  Level FlightAware
08:22AM 51.5670 -12.3140 285° West 439 505 34,000  Level FlightAware
08:23AM 51.5880 -12.4400 285° West 439 505 34,000  Level FlightAware
08:23AM 51.6060 -12.5470 285° West 439 505 34,000  Level FlightAware
08:24AM 51.6240 -12.6550 285° West 439 505 34,000  Level FlightAware
08:25AM 51.6420 -12.7620 285° West 439 505 34,000  Level FlightAware
08:26AM 51.6640 -12.8960 285° West 439 505 34,000  Level FlightAware
08:26AM 51.6820 -13.0040 285° West 439 505 34,000  Level FlightAware
08:27AM 51.7000 -13.1120 285° West 439 505 34,000  Level FlightAware
08:28AM 51.7180 -13.2190 285° West 439 505 34,000  Level FlightAware
08:28AM 51.7360 -13.3270 285° West 439 505 34,000  Level FlightAware
08:29AM 51.7580 -13.4620 285° West 439 505 34,000  Level FlightAware
08:30AM 51.7760 -13.5690 285° West 439 505 34,000  Level FlightAware
08:30AM 51.7940 -13.6770 285° West 439 505 34,000  Level FlightAware
08:31AM 51.8120 -13.7850 285° West 439 505 34,000  Level FlightAware
08:32AM 51.8290 -13.8930 284° West 439 505 34,000  Level FlightAware
08:35AM 51.9099 -14.3854 285° West  Level Estimated
08:36AM 51.9392 -14.5671 285° West  Level Estimated
08:37AM 51.9682 -14.7491 285° West  Level Estimated
08:38AM 51.9969 -14.9313 284° West  Level Estimated
08:39AM 52.0253 -15.1137 284° West  Level Estimated
08:40AM 52.0535 -15.2963 284° West  Level Estimated
08:41AM 52.0814 -15.4792 284° West  Level Estimated
08:42AM 52.1089 -15.6623 284° West  Level Estimated
08:43AM 52.1362 -15.8456 284° West  Level Estimated
08:44AM 52.1633 -16.0292 284° West  Level Estimated
08:45AM 52.1900 -16.2129 283° West  Level Estimated
08:46AM 52.2164 -16.3969 283° West  Level Estimated
08:47AM 52.2426 -16.5811 283° West  Level Estimated
08:48AM 52.2685 -16.7655 283° West  Level Estimated
08:49AM 52.2940 -16.9502 283° West  Level Estimated
08:50AM 52.3193 -17.1350 283° West  Level Estimated
08:51AM 52.3451 -17.3255 283° West  Level Estimated
08:52AM 52.3705 -17.5162 282° West  Level Estimated
08:53AM 52.3956 -17.7072 282° West  Level Estimated
08:54AM 52.4204 -17.8983 282° West  Level Estimated
08:55AM 52.4449 -18.0897 282° West  Level Estimated
08:56AM 52.4691 -18.2812 282° West  Level Estimated
08:57AM 52.4930 -18.4730 282° West  Level Estimated
08:58AM 52.5166 -18.6650 281° West  Level Estimated
08:59AM 52.5399 -18.8572 281° West  Level Estimated
09:00AM 52.5628 -19.0496 281° West  Level Estimated
09:01AM 52.5854 -19.2422 281° West  Level Estimated
09:02AM 52.6078 -19.4350 281° West  Level Estimated
09:03AM 52.6298 -19.6280 281° West  Level Estimated
09:04AM 52.6515 -19.8212 281° West  Level Estimated
09:05AM 52.6729 -20.0145 280° West  Level Estimated
09:05AM 51.0000 -20.0000 265° West 437 503 34,000  Level ETMS Enhanced Traffic Management System
09:06AM 52.6940 -20.2081 280° West  Level Estimated
09:07AM 52.7147 -20.4018 280° West  Level Estimated
09:08AM 52.7351 -20.5958 280° West  Level Estimated
09:09AM 52.7553 -20.7899 280° West  Level Estimated
09:10AM 52.7751 -20.9842 280° West  Level Estimated
09:11AM 50.8911 -21.7254 264° West 437 503 34,000  Level FlightAware Transoceanic
09:12AM 50.8774 -21.9166 263° West 437 503 34,000  Level FlightAware Transoceanic
09:13AM 50.8635 -22.1077 263° West 437 503 34,000  Level FlightAware Transoceanic
09:14AM 50.8492 -22.2986 263° West 437 503 34,000  Level FlightAware Transoceanic
09:15AM 50.8346 -22.4895 263° West 437 503 34,000  Level FlightAware Transoceanic
09:16AM 50.8197 -22.6802 263° West 437 503 34,000  Level FlightAware Transoceanic
09:17AM 50.8044 -22.8708 263° West 437 503 34,000  Level FlightAware Transoceanic
09:18AM 50.7889 -23.0613 263° West 437 503 34,000  Level FlightAware Transoceanic
09:19AM 50.7731 -23.2516 262° West 437 503 34,000  Level FlightAware Transoceanic
09:20AM 50.7569 -23.4418 262° West 437 503 34,000  Level FlightAware Transoceanic
09:21AM 50.7404 -23.6319 262° West 437 503 34,000  Level FlightAware Transoceanic
09:22AM 50.7237 -23.8218 262° West 437 503 34,000  Level FlightAware Transoceanic
09:23AM 50.7066 -24.0117 262° West 437 503 34,000  Level FlightAware Transoceanic
09:24AM 50.6892 -24.2013 262° West 437 503 34,000  Level FlightAware Transoceanic
09:25AM 50.6715 -24.3909 262° West 437 503 34,000  Level FlightAware Transoceanic
09:26AM 50.6535 -24.5802 261° West 437 503 34,000  Level FlightAware Transoceanic
09:27AM 50.6352 -24.7695 261° West 437 503 34,000  Level FlightAware Transoceanic
09:28AM 50.6166 -24.9586 261° West 437 503 34,000  Level FlightAware Transoceanic
09:29AM 50.5977 -25.1475 261° West 437 503 34,000  Level FlightAware Transoceanic
09:30AM 50.5784 -25.3363 261° West 437 503 34,000  Level FlightAware Transoceanic
09:31AM 50.5589 -25.5249 261° West 437 503 34,000  Level FlightAware Transoceanic
09:32AM 50.5391 -25.7134 261° West 437 503 34,000  Level FlightAware Transoceanic
09:33AM 50.5189 -25.9017 260° West 437 503 34,000  Level FlightAware Transoceanic
09:34AM 50.4985 -26.0899 260° West 437 503 34,000  Level FlightAware Transoceanic
09:35AM 50.4777 -26.2779 260° West 437 503 34,000  Level FlightAware Transoceanic
09:36AM 50.4567 -26.4657 260° West 437 503 34,000  Level FlightAware Transoceanic
09:37AM 50.4353 -26.6533 260° West 437 503 34,000  Level FlightAware Transoceanic
09:38AM 50.4137 -26.8408 260° West 437 503 34,000  Level FlightAware Transoceanic
09:39AM 50.3917 -27.0281 260° West 437 503 34,000  Level FlightAware Transoceanic
09:40AM 50.3695 -27.2153 259° West 437 503 34,000  Level FlightAware Transoceanic
09:41AM 50.3469 -27.4022 259° West 437 503 34,000  Level FlightAware Transoceanic
09:42AM 50.3241 -27.5890 259° West 437 503 34,000  Level FlightAware Transoceanic
09:43AM 50.3009 -27.7756 259° West 437 503 34,000  Level FlightAware Transoceanic
09:44AM 50.2775 -27.9620 259° West 437 503 34,000  Level FlightAware Transoceanic
09:45AM 50.2537 -28.1483 259° West 437 503 34,000  Level FlightAware Transoceanic
09:46AM 50.2297 -28.3343 259° West 437 503 34,000  Level FlightAware Transoceanic
09:47AM 50.2053 -28.5202 258° West 437 503 34,000  Level FlightAware Transoceanic
09:48AM 50.1807 -28.7058 258° West 437 503 34,000  Level FlightAware Transoceanic
09:49AM 50.1558 -28.8913 258° West 437 503 34,000  Level FlightAware Transoceanic
09:50AM 50.1306 -29.0766 258° West 437 503 34,000  Level FlightAware Transoceanic
09:51AM 50.1050 -29.2617 258° West 437 503 34,000  Level FlightAware Transoceanic
09:52AM 50.0792 -29.4466 258° West 437 503 34,000  Level FlightAware Transoceanic
09:53AM 50.0531 -29.6312 258° West 437 503 34,000  Level FlightAware Transoceanic
09:54AM 50.0267 -29.8157 257° West 437 503 34,000  Level FlightAware Transoceanic
09:55AM 50.0005 -29.9967 257° West  Level FlightAware Approximate
09:56AM 49.9740 -30.1775 257° West  Level FlightAware Approximate
09:57AM 49.9738 -30.1739 257° West  Level FlightAware Approximate
09:58AM 49.9463 -30.3543 257° West  Level FlightAware Approximate
09:59AM 49.9185 -30.5344 257° West  Level FlightAware Approximate
09:59AM 50.0000 -30.0000 257° West 440 506 34,000  Level ETMS Enhanced Traffic Management System
10:00AM 49.8904 -30.7143 256° West  Level FlightAware Approximate
10:01AM 49.8621 -30.8940 256° West  Level FlightAware Approximate
10:02AM 49.8334 -31.0737 256° West  Level FlightAware Approximate
10:03AM 49.8045 -31.2532 256° West  Level FlightAware Approximate
10:04AM 49.7753 -31.4326 256° West  Level FlightAware Approximate
10:05AM 49.7379 -31.6596 256° West 440 506 34,000  Level FlightAware Transoceanic
10:06AM 49.7073 -31.8429 255° West 440 506 34,000  Level FlightAware Transoceanic
10:07AM 49.6764 -32.0259 255° West 440 506 34,000  Level FlightAware Transoceanic
10:08AM 49.6452 -32.2087 255° West 440 506 34,000  Level FlightAware Transoceanic
10:09AM 49.6138 -32.3913 255° West 440 506 34,000  Level FlightAware Transoceanic
10:10AM 49.5821 -32.5736 255° West 440 506 34,000  Level FlightAware Transoceanic
10:11AM 49.5500 -32.7557 255° West 440 506 34,000  Level FlightAware Transoceanic
10:12AM 49.5177 -32.9376 255° West 440 506 34,000  Level FlightAware Transoceanic
10:13AM 49.4852 -33.1192 254° West 440 506 34,000  Level FlightAware Transoceanic
10:14AM 49.4523 -33.3006 254° West 440 506 34,000  Level FlightAware Transoceanic
10:15AM 49.4191 -33.4817 254° West 440 506 34,000  Level FlightAware Transoceanic
10:16AM 49.3857 -33.6626 254° West 440 506 34,000  Level FlightAware Transoceanic
10:17AM 49.3520 -33.8432 254° West 440 506 34,000  Level FlightAware Transoceanic
10:18AM 49.3180 -34.0236 254° West 440 506 34,000  Level FlightAware Transoceanic
10:19AM 49.2837 -34.2038 254° West 440 506 34,000  Level FlightAware Transoceanic
10:20AM 49.2491 -34.3836 254° West 440 506 34,000  Level FlightAware Transoceanic
10:21AM 49.2143 -34.5633 253° West 440 506 34,000  Level FlightAware Transoceanic
10:22AM 49.1792 -34.7427 253° West 440 506 34,000  Level FlightAware Transoceanic
10:23AM 49.1438 -34.9218 253° West 440 506 34,000  Level FlightAware Transoceanic
10:24AM 49.1081 -35.1007 253° West 440 506 34,000  Level FlightAware Transoceanic
10:25AM 49.0721 -35.2793 253° West 440 506 34,000  Level FlightAware Transoceanic
10:26AM 49.0359 -35.4576 253° West 440 506 34,000  Level FlightAware Transoceanic
10:27AM 48.9994 -35.6357 253° West 440 506 34,000  Level FlightAware Transoceanic
10:28AM 48.9626 -35.8135 252° West 440 506 34,000  Level FlightAware Transoceanic
10:29AM 48.9256 -35.9911 252° West 440 506 34,000  Level FlightAware Transoceanic
10:30AM 48.8883 -36.1684 252° West 440 506 34,000  Level FlightAware Transoceanic
10:31AM 48.8507 -36.3454 252° West 440 506 34,000  Level FlightAware Transoceanic
10:32AM 48.8128 -36.5222 252° West 440 506 34,000  Level FlightAware Transoceanic
10:33AM 48.7747 -36.6987 252° West 440 506 34,000  Level FlightAware Transoceanic
10:34AM 48.7363 -36.8750 252° West 440 506 34,000  Level FlightAware Transoceanic
10:35AM 48.6976 -37.0509 252° West 440 506 34,000  Level FlightAware Transoceanic
10:36AM 48.6587 -37.2266 251° West 440 506 34,000  Level FlightAware Transoceanic
10:37AM 48.6195 -37.4020 251° West 440 506 34,000  Level FlightAware Transoceanic
10:38AM 48.5800 -37.5772 251° West 440 506 34,000  Level FlightAware Transoceanic
10:39AM 48.5403 -37.7520 251° West 440 506 34,000  Level FlightAware Transoceanic
10:40AM 48.5003 -37.9266 251° West 440 506 34,000  Level FlightAware Transoceanic
10:41AM 48.4600 -38.1010 251° West 440 506 34,000  Level FlightAware Transoceanic
10:42AM 48.4195 -38.2750 251° West 440 506 34,000  Level FlightAware Transoceanic
10:43AM 48.3787 -38.4488 250° West 440 506 34,000  Level FlightAware Transoceanic
10:44AM 48.3377 -38.6223 250° West 440 506 34,000  Level FlightAware Transoceanic
10:45AM 48.2964 -38.7955 250° West 440 506 34,000  Level FlightAware Transoceanic
10:46AM 48.2548 -38.9684 250° West 440 506 34,000  Level FlightAware Transoceanic
10:47AM 48.2130 -39.1410 250° West 440 506 34,000  Level FlightAware Transoceanic
10:48AM 48.1709 -39.3134 250° West 440 506 34,000  Level FlightAware Transoceanic
10:49AM 48.1286 -39.4855 250° West 440 506 34,000  Level FlightAware Transoceanic
10:50AM 48.0860 -39.6573 250° West 440 506 34,000  Level FlightAware Transoceanic
10:51AM 48.0431 -39.8288 249° West 440 506 34,000  Level FlightAware Transoceanic
10:52AM 48.0010 -39.9958 249° West  Level FlightAware Approximate
10:53AM 47.9588 -40.1627 249° West  Level FlightAware Approximate
10:54AM 47.9731 -40.1647 256° West  Level FlightAware Approximate
10:55AM 47.9445 -40.3378 256° West  Level FlightAware Approximate
10:56AM 47.9157 -40.5107 256° West  Level FlightAware Approximate
10:56AM 48.0000 -40.0000 257° West 440 506 34,000  Level ETMS Enhanced Traffic Management System
10:57AM 47.8866 -40.6834 256° West  Level FlightAware Approximate
10:58AM 47.8573 -40.8559 256° West  Level FlightAware Approximate
10:59AM 47.8277 -41.0283 256° West  Level FlightAware Approximate
11:00AM 47.7978 -41.2004 256° West  Level FlightAware Approximate
11:01AM 47.7692 -41.3729 257° West  Level FlightAware Approximate
11:02AM 47.7183 -41.7759 256° West 440 506 34,000  Level FlightAware Transoceanic
11:03AM 47.6886 -41.9524 256° West 440 506 34,000  Level FlightAware Transoceanic
11:04AM 47.6587 -42.1287 256° West 440 506 34,000  Level FlightAware Transoceanic
11:05AM 47.6285 -42.3048 256° West 440 506 34,000  Level FlightAware Transoceanic
11:06AM 47.5980 -42.4807 256° West 440 506 34,000  Level FlightAware Transoceanic
11:07AM 47.5672 -42.6564 255° West 440 506 34,000  Level FlightAware Transoceanic
11:08AM 47.5362 -42.8319 255° West 440 506 34,000  Level FlightAware Transoceanic
11:09AM 47.5049 -43.0072 255° West 440 506 34,000  Level FlightAware Transoceanic
11:10AM 47.4734 -43.1823 255° West 440 506 34,000  Level FlightAware Transoceanic
11:11AM 47.4416 -43.3571 255° West 440 506 34,000  Level FlightAware Transoceanic
11:12AM 47.4095 -43.5318 255° West 440 506 34,000  Level FlightAware Transoceanic
11:13AM 47.3771 -43.7062 255° West 440 506 34,000  Level FlightAware Transoceanic
11:14AM 47.3445 -43.8804 254° West 440 506 34,000  Level FlightAware Transoceanic
11:15AM 47.3117 -44.0544 254° West 440 506 34,000  Level FlightAware Transoceanic
11:16AM 47.2785 -44.2282 254° West 440 506 34,000  Level FlightAware Transoceanic
11:17AM 47.2451 -44.4018 254° West 440 506 34,000  Level FlightAware Transoceanic
11:18AM 47.2114 -44.5751 254° West 440 506 34,000  Level FlightAware Transoceanic
11:19AM 47.1775 -44.7482 254° West 440 506 34,000  Level FlightAware Transoceanic
11:20AM 47.1433 -44.9212 254° West 440 506 34,000  Level FlightAware Transoceanic
11:21AM 47.1089 -45.0938 254° West 440 506 34,000  Level FlightAware Transoceanic
11:22AM 47.0742 -45.2663 253° West 440 506 34,000  Level FlightAware Transoceanic
11:23AM 47.0392 -45.4385 253° West 440 506 34,000  Level FlightAware Transoceanic
11:24AM 47.0040 -45.6105 253° West 440 506 34,000  Level FlightAware Transoceanic
11:25AM 46.9685 -45.7823 253° West 440 506 34,000  Level FlightAware Transoceanic
11:26AM 46.9328 -45.9539 253° West 440 506 34,000  Level FlightAware Transoceanic
11:27AM 46.8968 -46.1252 253° West 440 506 34,000  Level FlightAware Transoceanic
11:28AM 46.8606 -46.2963 253° West 440 506 34,000  Level FlightAware Transoceanic
11:29AM 46.8241 -46.4671 253° West 440 506 34,000  Level FlightAware Transoceanic
11:30AM 46.7873 -46.6377 252° West 440 506 34,000  Level FlightAware Transoceanic
11:31AM 46.7503 -46.8082 252° West 440 506 34,000  Level FlightAware Transoceanic
11:32AM 46.7131 -46.9783 252° West 440 506 34,000  Level FlightAware Transoceanic
11:33AM 46.6755 -47.1482 252° West 440 506 34,000  Level FlightAware Transoceanic
11:34AM 46.6378 -47.3179 252° West 440 506 34,000  Level FlightAware Transoceanic
11:35AM 46.5998 -47.4874 252° West 440 506 34,000  Level FlightAware Transoceanic
11:36AM 46.5615 -47.6566 252° West 440 506 34,000  Level FlightAware Transoceanic
11:37AM 46.5230 -47.8255 252° West 440 506 34,000  Level FlightAware Transoceanic
11:38AM 46.4842 -47.9943 251° West 440 506 34,000  Level FlightAware Transoceanic
11:39AM 46.4452 -48.1628 251° West 440 506 34,000  Level FlightAware Transoceanic
11:40AM 46.4060 -48.3310 251° West 440 506 34,000  Level FlightAware Transoceanic
11:41AM 46.3665 -48.4990 251° West 440 506 34,000  Level FlightAware Transoceanic
11:42AM 46.3267 -48.6668 251° West 440 506 34,000  Level FlightAware Transoceanic
11:43AM 46.2867 -48.8343 251° West 440 506 34,000  Level FlightAware Transoceanic
11:44AM 46.2465 -49.0016 251° West 440 506 34,000  Level FlightAware Transoceanic
11:45AM 46.2060 -49.1686 251° West 440 506 34,000  Level FlightAware Transoceanic
11:46AM 46.1653 -49.3354 251° West 440 506 34,000  Level FlightAware Transoceanic
11:47AM 46.1243 -49.5019 250° West 440 506 34,000  Level FlightAware Transoceanic
11:48AM 46.0831 -49.6682 250° West 440 506 34,000  Level FlightAware Transoceanic
11:49AM 46.0417 -49.8342 250° West 440 506 34,000  Level FlightAware Transoceanic
11:50AM 45.9971 -49.9937 248° West  Level FlightAware Approximate
11:51AM 46.0000 -49.9903 270° West  Level FlightAware Approximate
11:52AM 45.9743 -50.1579 257° West  Level FlightAware Approximate
11:53AM 45.9469 -50.3250 257° West  Level FlightAware Approximate
11:53AM 46.0000 -50.0000 257° West 514 592 34,000  Level ETMS Enhanced Traffic Management System
11:54AM 45.9196 -50.4897 257° West  Level FlightAware Approximate
11:54AM 45.9000 -50.5000 257° West 450 518 34,000  Level Gander Center
11:55AM 45.8917 -50.6562 257° West  Level FlightAware Approximate
11:55AM 45.8667 -50.6667 254° West 450 518 34,000  Level Gander Center
11:56AM 45.8636 -50.8224 256° West  Level FlightAware Approximate
11:56AM 45.8333 -50.8167 252° West 450 518 34,000  Level Gander Center
11:57AM 45.8353 -50.9886 256° West  Level FlightAware Approximate
11:57AM 45.8000 -51.0167 257° West 450 518 34,000  Level Gander Center
11:58AM 45.8082 -51.1550 257° West  Level FlightAware Approximate
11:58AM 45.7833 -51.2000 263° West 440 506 34,000  Level Gander Center
11:59AM 45.8335 -50.9992 257° West  Level FlightAware Approximate
11:59AM 45.7500 -51.3500 252° West 450 518 34,000  Level Gander Center
12:00PM 45.7500 -51.5333 270° West 450 518 34,000  Level Gander Center
12:01PM 45.7500 -51.7000 270° West 450 518 34,000 120 Level Gander Center
12:02PM 45.7667 -51.9000 277° West 440 506 34,300 600 Climbing Gander Center
12:03PM 45.7833 -52.0667 278° West 440 506 35,200 840 Climbing Gander Center
12:04PM 45.8000 -52.2000 280° West 440 506 35,900 420 Climbing Gander Center
12:05PM 45.8167 -52.3667 278° West 430 495 36,000  Climbing Gander Center
12:10PM 45.8990 -53.3840 278° West 428 493 36,000  Level FlightAware
12:11PM 45.9090 -53.5120 276° West 428 493 36,000  Level FlightAware
12:12PM 45.9180 -53.6270 276° West 429 494 36,000  Level FlightAware
12:12PM 45.9260 -53.7390 276° West 428 493 36,000  Level FlightAware
12:13PM 45.9330 -53.8540 275° West 428 493 36,000  Level FlightAware
12:14PM 45.9420 -53.9790 276° West 430 495 36,000  Level FlightAware
12:14PM 45.9500 -54.0910 276° West 429 494 36,000  Level FlightAware
12:15PM 45.9590 -54.2200 276° West 430 495 36,000  Level FlightAware
12:16PM 45.9670 -54.3470 275° West 429 494 36,000  Level FlightAware
12:17PM 45.9750 -54.4600 276° West 429 494 36,000  Level FlightAware
12:17PM 45.9810 -54.5600 275° West 430 495 36,000  Level FlightAware
12:18PM 45.9870 -54.6570 275° West 430 495 36,000  Level FlightAware
12:19PM 45.9980 -54.8160 276° West 428 493 36,000  Level FlightAware
12:19PM 46.0060 -54.9350 276° West 428 493 36,000  Level FlightAware
12:20PM 46.0130 -55.0400 276° West 428 493 36,000  Level FlightAware
12:21PM 46.0190 -55.1370 275° West 428 493 36,000  Level FlightAware
12:21PM 46.0240 -55.2330 274° West 428 493 36,000  Level FlightAware
12:22PM 46.0300 -55.3300 275° West 428 493 36,000  Level FlightAware
12:23PM 46.0360 -55.4270 275° West 428 493 36,000  Level FlightAware
12:24PM 46.0430 -55.5470 275° West 428 493 36,000  Level FlightAware
12:24PM 46.0490 -55.6440 275° West 428 493 36,000  Level FlightAware
12:25PM 46.0550 -55.7410 275° West 428 493 36,000  Level FlightAware
12:26PM 46.0610 -55.8370 275° West 428 493 36,000  Level FlightAware
12:26PM 46.0670 -55.9340 275° West 428 493 36,000  Level FlightAware
12:27PM 46.0740 -56.0550 275° West 428 493 36,000  Level FlightAware
12:28PM 46.0800 -56.1510 275° West 428 493 36,000  Level FlightAware
12:28PM 46.0960 -56.4520 274° West 426 490 36,000  Level FlightAware
12:29PM 46.1020 -56.5680 274° West 426 490 36,000  Level FlightAware
12:30PM 46.1090 -56.7100 274° West 426 490 36,000  Level FlightAware
12:30PM 46.1140 -56.8110 274° West 427 491 36,000  Level FlightAware
12:31PM 46.1210 -56.9410 274° West 427 491 36,000  Level FlightAware
12:32PM 46.1260 -57.0560 274° West 426 490 36,000  Level FlightAware
12:33PM 46.1310 -57.1720 274° West 426 490 36,000  Level FlightAware
12:33PM 46.1360 -57.2850 274° West 427 491 36,000  Level FlightAware
12:34PM 46.1430 -57.4340 274° West 428 493 36,000  Level FlightAware
12:35PM 46.1480 -57.5660 273° West 428 493 36,000  Level FlightAware
12:36PM 46.1540 -57.6860 274° West 430 495 36,000  Level FlightAware
12:36PM 46.1580 -57.8010 273° West 430 495 36,000  Level FlightAware
12:37PM 46.1620 -57.8980 273° West 430 495 36,000  Level FlightAware
12:38PM 46.1660 -58.0200 273° West 430 495 36,000  Level FlightAware
12:38PM 46.1700 -58.1180 273° West 430 495 36,000  Level FlightAware
12:39PM 46.1780 -58.2780 274° West 429 494 36,000  Level FlightAware
12:40PM 46.1830 -58.4280 273° West 429 494 36,000  Level FlightAware
12:41PM 46.1870 -58.5450 273° West 428 493 36,000  Level FlightAware
12:41PM 46.1910 -58.6760 273° West 428 493 36,000  Level FlightAware
12:42PM 46.1950 -58.7870 273° West 427 491 36,000  Level FlightAware
12:43PM 46.1980 -58.9040 272° West 426 490 36,000  Level FlightAware
12:43PM 46.2020 -59.0290 273° West 425 489 36,000  Level FlightAware
12:44PM 46.2050 -59.1400 272° West 425 489 36,000  Level FlightAware
12:45PM 46.2090 -59.2700 273° West 425 489 36,000  Level FlightAware
12:45PM 46.2120 -59.3850 272° West 424 488 36,000  Level FlightAware
12:46PM 46.2150 -59.5020 272° West 423 487 36,000  Level FlightAware
12:47PM 46.2180 -59.6220 272° West 423 487 36,000  Level FlightAware
12:48PM 46.2210 -59.7320 272° West 426 490 36,000  Level FlightAware
12:48PM 46.2240 -59.8630 272° West 431 496 36,000  Level FlightAware
12:49PM 46.2260 -59.9790 271° West 430 495 36,000  Level FlightAware
12:50PM 46.2290 -60.1050 272° West 431 496 36,000  Level FlightAware
12:50PM 46.2310 -60.2180 272° West 431 496 36,000  Level FlightAware
12:51PM 46.2330 -60.3320 271° West 430 495 36,000  Level FlightAware
12:52PM 46.2350 -60.4640 271° West 428 493 36,000  Level FlightAware
12:52PM 46.2360 -60.5780 271° West 426 490 36,000  Level FlightAware
12:53PM 46.2380 -60.7030 271° West 424 488 36,000  Level FlightAware
12:54PM 46.2390 -60.8160 271° West 423 487 36,000  Level FlightAware
12:55PM 46.2410 -60.9280 272° West 422 486 36,000  Level FlightAware
12:55PM 46.2420 -61.0570 271° West 420 483 36,000  Level FlightAware
12:56PM 46.2440 -61.1690 272° West 419 482 36,000  Level FlightAware
12:57PM 46.2450 -61.2930 271° West 418 481 36,000  Level FlightAware
12:57PM 46.2460 -61.4040 271° West 418 481 36,000  Level FlightAware
12:58PM 46.2460 -61.5170 270° West 419 482 36,000  Level FlightAware
12:59PM 46.2470 -61.6430 271° West 421 484 36,000  Level FlightAware
12:59PM 46.2470 -61.7480 270° West 422 486 36,000  Level FlightAware
01:00PM 46.2470 -61.8510 270° West 423 487 36,000  Level FlightAware
01:01PM 46.2480 -61.9920 271° West 424 488 36,000  Level FlightAware
01:01PM 46.2480 -62.0910 270° West 424 488 36,000  Level FlightAware
01:02PM 46.2480 -62.2170 270° West 425 489 36,000  Level FlightAware
01:03PM 46.2470 -62.3490 269° West 426 490 36,000  Level FlightAware
01:04PM 46.2470 -62.4620 270° West 427 491 36,000  Level FlightAware
01:04PM 46.2460 -62.5800 269° West 427 491 36,000  Level FlightAware
01:05PM 46.2450 -62.6750 269° West 427 491 36,000  Level FlightAware
01:06PM 46.2440 -62.7720 269° West 427 491 36,000  Level FlightAware
01:07PM 46.2420 -62.9750 269° West 428 493 36,000  Level FlightAware
01:07PM 46.2400 -63.0720 268° West 428 493 36,000  Level FlightAware
01:08PM 46.2370 -63.1690 267° West 428 493 36,000  Level FlightAware
01:09PM 46.2350 -63.2670 268° West 428 493 36,000  Level FlightAware
01:09PM 46.2330 -63.3640 268° West 428 493 36,000  Level FlightAware
01:10PM 46.2300 -63.4610 267° West 428 493 36,000  Level FlightAware
01:11PM 46.2350 -63.6990 272° West 428 493 36,000  Level FlightAware
01:11PM 46.2330 -63.7890 268° West 428 493 36,000  Level FlightAware
01:12PM 46.2300 -63.9110 268° West 428 493 36,000  Level FlightAware
01:13PM 46.2280 -64.0080 268° West 428 493 36,000  Level FlightAware
01:14PM 46.2250 -64.1050 267° West 428 493 36,000  Level FlightAware
01:14PM 46.2250 -64.2960 270° West 428 493 36,000  Level FlightAware
01:15PM 46.2210 -64.4430 268° West 428 493 36,000  Level FlightAware
01:16PM 46.2190 -64.5400 268° West 428 493 36,000  Level FlightAware
01:17PM 46.2160 -64.6850 268° West 429 494 36,000  Level FlightAware
01:17PM 46.2120 -64.7970 267° West 429 494 36,000  Level FlightAware
01:18PM 46.2090 -64.8940 267° West 429 494 36,000  Level FlightAware
01:19PM 46.2050 -64.9920 267° West 429 494 36,000  Level FlightAware
01:19PM 46.2030 -65.1550 269° West 426 490 36,000  Level FlightAware
01:20PM 46.2010 -65.2890 269° West 426 490 36,000  Level FlightAware
01:21PM 46.1970 -65.3970 267° West 426 490 36,000  Level FlightAware
01:22PM 46.1930 -65.5380 268° West 426 490 36,000  Level FlightAware
01:22PM 46.1900 -65.6490 268° West 426 490 36,000  Level FlightAware
01:23PM 46.1860 -65.7710 267° West 426 490 36,000  Level FlightAware
01:24PM 46.1820 -65.8850 267° West 427 491 36,000  Level FlightAware
01:25PM 46.1770 -66.0350 267° West 427 491 36,000  Level FlightAware
01:25PM 46.1720 -66.1510 266° West 427 491 36,000  Level FlightAware
01:26PM 46.1680 -66.2700 267° West 428 493 36,000  Level FlightAware
01:27PM 46.1640 -66.3870 267° West 428 493 36,000  Level FlightAware
01:27PM 46.1590 -66.5190 267° West 428 493 36,000  Level FlightAware
01:28PM 46.1540 -66.6320 266° West 428 493 36,000  Level FlightAware
01:29PM 46.1480 -66.7740 267° West 428 493 36,000  Level FlightAware
01:30PM 46.1440 -66.8720 267° West 429 494 36,000  Level FlightAware
01:30PM 46.1390 -67.0000 267° West 429 494 36,000  Level FlightAware
01:31PM 46.1340 -67.1170 267° West 430 495 36,000  Level FlightAware
01:32PM 46.1280 -67.2550 266° West 431 496 36,000  Level FlightAware
01:33PM 46.1230 -67.3890 267° West 431 496 36,000  Level FlightAware
01:33PM 46.1170 -67.5150 266° West 432 497 36,000  Level FlightAware
01:34PM 46.1110 -67.6320 266° West 431 496 36,000  Level FlightAware
01:35PM 46.1050 -67.7570 266° West 433 498 36,000  Level FlightAware
01:35PM 46.0990 -67.8710 266° West 434 499 36,000  Level FlightAware
01:36PM 46.0930 -67.9920 266° West 434 499 36,000  Level FlightAware
01:37PM 46.0860 -68.1230 266° West 435 501 36,000  Level FlightAware
01:37PM 46.0800 -68.2370 266° West 435 501 36,000  Level FlightAware
01:38PM 46.0730 -68.3560 265° West 435 501 36,000  Level FlightAware
01:39PM 46.0660 -68.4870 266° West 434 499 36,000  Level FlightAware
01:40PM 46.0600 -68.6010 266° West 434 499 36,000  Level FlightAware
01:40PM 46.0530 -68.7300 266° West 432 497 36,000  Level FlightAware
01:41PM 46.0470 -68.8420 266° West 431 496 36,000  Level FlightAware
01:42PM 46.0400 -68.9570 265° West 431 496 36,000  Level FlightAware
01:42PM 46.0330 -69.0860 266° West 431 496 36,000  Level FlightAware
01:43PM 46.0260 -69.1990 265° West 431 496 36,000  Level FlightAware
01:44PM 46.0180 -69.3270 265° West 431 496 36,000  Level FlightAware
01:44PM 46.0110 -69.4410 265° West 432 497 36,000  Level FlightAware
01:45PM 46.0040 -69.5690 266° West 432 497 36,000  Level FlightAware
01:46PM 45.9960 -69.6830 264° West 432 497 36,000  Level FlightAware
01:47PM 45.9890 -69.7970 265° West 433 498 36,000  Level FlightAware
01:47PM 45.9800 -69.9250 264° West 433 498 36,000  Level FlightAware
01:48PM 45.9740 -70.0400 266° West 433 498 36,000  Level FlightAware
01:49PM 45.9740 -70.1690 270° West 433 498 36,000  Level FlightAware
01:49PM 45.9710 -70.2830 268° West 433 498 36,000  Level FlightAware
01:50PM 45.9620 -70.3970 264° West 435 501 36,000  Level FlightAware
01:51PM 45.9510 -70.5250 263° West 435 501 36,000  Level FlightAware
01:51PM 45.9420 -70.6400 264° West 433 498 36,000 -420 Level FlightAware
01:52PM 45.9330 -70.7510 263° West 424 488 35,500 -1,020 Descending FlightAware
01:53PM 45.9240 -70.8760 264° West 415 478 34,600 -1,140 Descending FlightAware
01:54PM 45.9150 -70.9840 263° West 404 465 33,900 -1,740 Descending FlightAware
01:54PM 45.9050 -71.1040 263° West 400 460 32,200 -2,160 Descending FlightAware
01:55PM 45.8960 -71.2070 263° West 395 455 30,900 -1,980 Descending FlightAware
01:56PM 45.8860 -71.3110 262° West 388 447 29,600 -1,920 Descending FlightAware
01:56PM 45.8750 -71.4240 262° West 378 435 28,200 -1,800 Descending FlightAware
01:57PM 45.8640 -71.5220 261° West 370 426 27,100 -1,740 Descending FlightAware
01:58PM 45.8540 -71.6280 262° West 357 411 25,800 -1,980 Descending FlightAware
01:58PM 45.8460 -71.7220 263° West 366 421 24,300 -2,220 Descending FlightAware
01:59PM 45.8350 -71.8320 262° West 381 438 22,700 -1,500 Descending FlightAware
02:00PM 45.8260 -71.9330 263° West 379 436 22,200 -720 Descending FlightAware
02:01PM 45.8170 -72.0310 263° West 378 435 21,800 -660 Descending FlightAware
02:01PM 45.8060 -72.1420 262° West 373 429 21,300 -720 Descending FlightAware
02:02PM 45.7970 -72.2390 262° West 369 425 20,800 -1,200 Descending FlightAware
02:03PM 45.7860 -72.3460 262° West 362 417 19,600 -1,860 Descending FlightAware
02:03PM 45.7760 -72.4400 261° West 355 409 18,200 -2,400 Descending FlightAware
02:04PM 45.7670 -72.5340 262° West 361 415 16,400 -2,340 Descending FlightAware
02:05PM 45.7580 -72.6230 262° West 353 406 15,100 -2,100 Descending FlightAware
02:05PM 45.7470 -72.7280 261° West 345 397 13,500 -2,100 Descending FlightAware
02:06PM 45.7370 -72.8230 261° West 335 386 12,200 -1,920 Descending FlightAware
02:07PM 45.7270 -72.9190 262° West 328 377 10,800 -1,560 Descending FlightAware
02:08PM 45.7180 -73.0040 261° West 311 358 10,000 -780 Descending FlightAware
02:08PM 45.7090 -73.0620 257° West 288 331 9,900 -360 Descending FlightAware
02:08PM 45.7020 -73.1090 258° West 275 316 9,700 -600 Descending FlightAware
02:09PM 45.6980 -73.1320 256° West 268 308 9,500 -1,200 Descending FlightAware
02:09PM 45.6900 -73.1850 258° West 270 311 8,800 -1,320 Descending FlightAware
02:10PM 45.6830 -73.2300 257° West 269 310 8,300 -1,320 Descending FlightAware
02:10PM 45.6750 -73.2820 258° West 270 311 7,600 -1,560 Descending FlightAware
02:11PM 45.6690 -73.3240 258° West 264 304 6,900 -1,680 Descending FlightAware
02:11PM 45.6620 -73.3740 259° West 248 285 6,100 -1,500 Descending FlightAware
02:12PM 45.6560 -73.4200 259° West 233 268 5,400 -1,800 Descending FlightAware
02:12PM 45.6510 -73.4610 260° West 236 272 4,500 -1,680 Descending FlightAware
02:12PM 45.6440 -73.5060 257° West 234 269 3,900 -1,200 Descending FlightAware
02:13PM 45.6350 -73.5490 253° West 233 268 3,300 -1,200 Descending FlightAware
02:13PM 45.6190 -73.5790 233° Southwest 232 267 2,800 -780 Descending FlightAware
02:14PM 45.5960 -73.6090 222° Southwest 213 245 2,600 -480 Descending FlightAware
02:14PM 45.5790 -73.6330 225° Southwest 199 229 2,400 -600 Descending FlightAware
02:15PM 45.5690 -73.6450 220° Southwest 200 230 2,200 -1,080 Descending FlightAware
02:15PM 45.5480 -73.6720 222° Southwest 198 228 1,600 -1,140 Descending FlightAware
02:16PM 45.5290 -73.6970 223° Southwest 169 194 1,100 -1,080 Descending FlightAware
02:16PM 45.5240 -73.7050 228° Southwest 157 181 900 -900 Descending FlightAware
02:16PM 45.5100 -73.7230 222° Southwest 140 161 500 -720 Descending FlightAware
02:17PM 45.4970 -73.7400 223° Southwest 141 162 200 -600 Descending FlightAware
02:17PM 45.4860 -73.7540 222° Southwest 139 160 -600 Descending FlightAware